Time;durP1;ratioP1;P1;durP2;ratioP2;P2;SDS_P1;SDS_P2;PMS_P1;PMS_P2;Temp;Humidity;BMP_temperature;BMP_pressure;BME280_temperature;BME280_humidity;BME280_pressure;Samples;Min_cycle;Max_cycle;Signal;HPM_P1;HPM_P2
2021/07/01 00:00:11;;;;;;;18.25;8.95;;;14.50;99.90;;;;;;5030573;28;20067;-55
2021/07/01 00:02:37;;;;;;;19.67;9.50;;;14.60;99.90;;;;;;5031049;28;20029;-55
2021/07/01 00:05:05;;;;;;;17.42;8.68;;;14.60;99.90;;;;;;5031311;28;20033;-55
2021/07/01 00:07:30;;;;;;;17.10;8.27;;;14.50;99.90;;;;;;5030878;28;20083;-54
2021/07/01 00:09:56;;;;;;;18.10;9.18;;;14.40;99.90;;;;;;5031304;28;20025;-54
2021/07/01 00:12:21;;;;;;;14.05;8.82;;;14.40;99.90;;;;;;5031115;28;20474;-54
2021/07/01 00:14:47;;;;;;;15.82;8.88;;;14.40;99.90;;;;;;5031166;28;20048;-55
2021/07/01 00:17:13;;;;;;;16.90;8.63;;;14.40;99.90;;;;;;5031508;28;20025;-55
2021/07/01 00:19:38;;;;;;;17.85;8.73;;;14.40;99.90;;;;;;5032697;28;20081;-55
2021/07/01 00:22:04;;;;;;;18.33;9.05;;;14.40;99.90;;;;;;5035158;28;20030;-55
2021/07/01 00:24:30;;;;;;;15.30;9.10;;;14.40;99.90;;;;;;5035138;28;20334;-55
2021/07/01 00:26:55;;;;;;;17.17;9.07;;;14.50;99.90;;;;;;5034884;28;20496;-55
2021/07/01 00:29:21;;;;;;;19.60;9.35;;;14.50;99.90;;;;;;5034797;28;20064;-55
2021/07/01 00:31:47;;;;;;;18.27;8.95;;;14.50;99.90;;;;;;5034522;28;20107;-54
2021/07/01 00:34:12;;;;;;;17.02;8.45;;;14.50;99.90;;;;;;5034894;28;20378;-55
2021/07/01 00:36:38;;;;;;;19.95;9.05;;;14.50;99.90;;;;;;5034709;28;20032;-55
2021/07/01 00:39:05;;;;;;;16.45;9.23;;;14.50;99.90;;;;;;5034366;28;20021;-55
2021/07/01 00:41:31;;;;;;;17.90;10.25;;;14.60;99.90;;;;;;5034800;28;20421;-55
2021/07/01 00:43:57;;;;;;;16.83;9.45;;;14.60;99.90;;;;;;5034723;28;20100;-55
2021/07/01 00:46:23;;;;;;;17.27;9.73;;;14.60;99.90;;;;;;5034480;28;20029;-55
2021/07/01 00:48:48;;;;;;;18.10;10.48;;;14.60;99.90;;;;;;5034491;28;20044;-55
2021/07/01 00:51:14;;;;;;;17.70;9.73;;;14.60;99.90;;;;;;5034273;28;20084;-55
2021/07/01 00:53:40;;;;;;;17.30;10.30;;;14.60;99.90;;;;;;5034421;28;20029;-55
2021/07/01 00:56:07;;;;;;;20.40;10.60;;;14.50;99.90;;;;;;5034414;28;20033;-54
2021/07/01 00:58:33;;;;;;;18.83;10.73;;;14.40;99.90;;;;;;5034236;28;20032;-55
2021/07/01 01:01:02;;;;;;;21.75;10.65;;;14.40;99.90;;;;;;5034490;28;20033;-55
2021/07/01 01:03:35;;;;;;;21.25;11.35;;;14.50;99.90;;;;;;5034259;28;20398;-55
2021/07/01 01:06:02;;;;;;;23.73;11.00;;;14.50;99.90;;;;;;5034053;28;20079;-55
2021/07/01 01:08:27;;;;;;;18.08;10.80;;;14.50;99.90;;;;;;5034174;28;20060;-55
2021/07/01 01:10:53;;;;;;;18.83;11.57;;;14.40;99.90;;;;;;5034333;28;20065;-55
2021/07/01 01:13:26;;;;;;;19.83;11.73;;;14.40;99.90;;;;;;5034161;28;20382;-55
2021/07/01 01:16:02;;;;;;;29.80;13.05;;;14.50;99.90;;;;;;5033999;28;20024;-54
2021/07/01 01:18:28;;;;;;;19.95;12.20;;;14.40;99.90;;;;;;5033995;28;20037;-55
2021/07/01 01:20:56;;;;;;;23.00;12.35;;;14.40;99.90;;;;;;5033773;28;20501;-54
2021/07/01 01:23:23;;;;;;;20.88;11.90;;;14.30;99.90;;;;;;5033959;28;20542;-54
2021/07/01 01:26:01;;;;;;;20.58;11.77;;;14.40;99.90;;;;;;5033975;28;20135;-54
2021/07/01 01:28:27;;;;;;;23.25;12.77;;;14.40;99.90;;;;;;5033672;28;20242;-54
2021/07/01 01:30:53;;;;;;;21.13;12.50;;;14.40;99.90;;;;;;5032665;28;20099;-54
2021/07/01 01:33:19;;;;;;;20.52;12.38;;;14.40;99.90;;;;;;5033684;28;20025;-54
2021/07/01 01:35:45;;;;;;;24.75;13.32;;;14.40;99.90;;;;;;5033475;28;20071;-56
2021/07/01 01:38:14;;;;;;;25.23;14.13;;;14.30;99.90;;;;;;5033595;28;20064;-54
2021/07/01 01:40:47;;;;;;;25.40;13.85;;;14.30;99.90;;;;;;5033547;28;20255;-54
2021/07/01 01:43:13;;;;;;;21.00;13.55;;;14.40;99.90;;;;;;5033676;28;20063;-54
2021/07/01 01:45:40;;;;;;;22.90;13.30;;;14.40;99.90;;;;;;5032184;28;20025;-54
2021/07/01 01:48:06;;;;;;;26.33;14.50;;;14.30;99.90;;;;;;5033351;28;20021;-54
2021/07/01 01:50:33;;;;;;;24.50;13.57;;;14.30;99.90;;;;;;5033122;28;20044;-54
2021/07/01 01:52:59;;;;;;;23.63;13.65;;;14.30;99.90;;;;;;5033115;28;20493;-54
2021/07/01 01:55:25;;;;;;;24.27;14.07;;;14.30;99.90;;;;;;5033371;28;20026;-55
2021/07/01 01:57:51;;;;;;;25.10;14.57;;;14.30;99.90;;;;;;5033256;28;20604;-54
2021/07/01 02:00:20;;;;;;;23.30;14.55;;;14.40;99.90;;;;;;5033249;28;20079;-54
2021/07/01 02:02:47;;;;;;;25.20;14.23;;;14.30;99.90;;;;;;5032013;28;20025;-55
2021/07/01 02:05:13;;;;;;;20.60;12.93;;;14.40;99.90;;;;;;5033139;28;20025;-55
2021/07/01 02:07:40;;;;;;;22.40;12.43;;;14.40;99.90;;;;;;5033039;28;20017;-54
2021/07/01 02:10:14;;;;;;;21.20;12.48;;;14.30;99.90;;;;;;5033203;28;20037;-55
2021/07/01 02:12:40;;;;;;;20.98;12.93;;;14.30;99.90;;;;;;5032872;28;20075;-54
2021/07/01 02:15:08;;;;;;;25.15;14.73;;;14.30;99.90;;;;;;5033020;28;20367;-54
2021/07/01 02:17:35;;;;;;;26.05;14.88;;;14.40;99.90;;;;;;5031623;28;20420;-54
2021/07/01 02:20:10;;;;;;;22.77;13.68;;;14.30;99.90;;;;;;5032676;28;20014;-54
2021/07/01 02:22:36;;;;;;;24.10;14.38;;;14.30;99.90;;;;;;5031365;28;20026;-55
2021/07/01 02:25:03;;;;;;;25.05;14.60;;;14.30;99.90;;;;;;5032831;28;20504;-54
2021/07/01 02:27:28;;;;;;;24.77;14.68;;;14.30;99.90;;;;;;5031282;28;20083;-54
2021/07/01 02:29:54;;;;;;;24.02;13.50;;;14.40;99.90;;;;;;5031141;28;20056;-54
2021/07/01 02:32:20;;;;;;;22.52;13.45;;;14.40;99.90;;;;;;5032459;28;20100;-54
2021/07/01 02:34:46;;;;;;;18.88;12.85;;;14.40;99.90;;;;;;5032533;28;20028;-55
2021/07/01 02:37:12;;;;;;;19.00;12.13;;;14.40;99.90;;;;;;5032768;28;20540;-55
2021/07/01 02:39:39;;;;;;;16.45;12.48;;;14.30;99.90;;;;;;5032799;28;20336;-54
2021/07/01 02:42:05;;;;;;;21.85;12.70;;;14.20;99.90;;;;;;5031013;28;20029;-54
2021/07/01 02:44:31;;;;;;;22.45;13.43;;;14.20;99.90;;;;;;5032486;28;20041;-54
2021/07/01 02:46:57;;;;;;;23.23;13.65;;;14.20;99.90;;;;;;5032105;28;20048;-54
2021/07/01 02:49:23;;;;;;;22.40;13.23;;;14.30;99.90;;;;;;5032315;28;20030;-55
2021/07/01 02:51:49;;;;;;;21.23;12.15;;;14.40;99.90;;;;;;5032040;28;20034;-55
2021/07/01 02:54:15;;;;;;;22.58;12.55;;;14.30;99.90;;;;;;5032393;28;20113;-54
2021/07/01 02:56:41;;;;;;;21.13;12.20;;;14.30;99.90;;;;;;5032107;28;20533;-55
2021/07/01 02:59:08;;;;;;;19.77;12.40;;;14.30;99.90;;;;;;5032045;28;20029;-55
2021/07/01 03:01:34;;;;;;;19.73;12.18;;;14.30;99.90;;;;;;5032079;28;20386;-55
2021/07/01 03:04:00;;;;;;;19.63;11.88;;;14.30;99.90;;;;;;5031757;28;20029;-54
2021/07/01 03:06:26;;;;;;;21.58;11.75;;;14.20;99.90;;;;;;5030715;28;20030;-54
2021/07/01 03:08:54;;;;;;;20.60;11.45;;;14.30;99.90;;;;;;5032119;28;20032;-54
2021/07/01 03:11:20;;;;;;;17.88;11.50;;;14.20;99.90;;;;;;5031930;28;20394;-54
2021/07/01 03:13:45;;;;;;;21.13;11.43;;;14.20;99.90;;;;;;5032173;28;20361;-54
2021/07/01 03:16:13;;;;;;;19.67;11.45;;;14.10;99.90;;;;;;5032271;28;20021;-54
2021/07/01 03:18:38;;;;;;;19.30;12.18;;;14.10;99.90;;;;;;5032990;28;20089;-54
2021/07/01 03:21:04;;;;;;;21.90;12.55;;;14.20;99.90;;;;;;5031413;28;20063;-55
2021/07/01 03:23:30;;;;;;;20.05;12.95;;;14.30;99.90;;;;;;5032601;28;20026;-54
2021/07/01 03:25:55;;;;;;;20.70;12.93;;;14.20;99.90;;;;;;5031143;28;20033;-55
2021/07/01 03:28:21;;;;;;;19.30;12.25;;;14.20;99.90;;;;;;5030590;28;20065;-54
2021/07/01 03:30:46;;;;;;;20.30;11.93;;;14.20;99.90;;;;;;5031514;28;20050;-54
2021/07/01 03:33:12;;;;;;;18.45;11.68;;;14.10;99.90;;;;;;5031616;28;20029;-55
2021/07/01 03:35:38;;;;;;;18.98;12.70;;;14.20;99.90;;;;;;5030259;28;20041;-55
2021/07/01 03:38:03;;;;;;;19.08;12.27;;;14.10;99.90;;;;;;5031225;28;20083;-54
2021/07/01 03:40:29;;;;;;;23.88;12.32;;;14.10;99.90;;;;;;5031499;28;20386;-54
2021/07/01 03:42:55;;;;;;;22.05;11.68;;;14.10;99.90;;;;;;5031433;28;20034;-54
2021/07/01 03:45:20;;;;;;;23.30;12.85;;;14.10;99.90;;;;;;5031413;28;20029;-54
2021/07/01 03:47:46;;;;;;;25.45;12.30;;;14.10;99.90;;;;;;5031485;28;20049;-54
2021/07/01 03:50:12;;;;;;;22.27;12.57;;;14.00;99.90;;;;;;5031139;28;20076;-54
2021/07/01 03:52:37;;;;;;;21.90;12.23;;;14.00;99.90;;;;;;5031266;28;20052;-54
2021/07/01 03:55:03;;;;;;;21.95;12.48;;;14.10;99.90;;;;;;5030687;28;20029;-54
2021/07/01 03:57:29;;;;;;;19.25;12.13;;;14.20;99.90;;;;;;5031055;28;20030;-55
2021/07/01 03:59:55;;;;;;;18.73;11.15;;;14.30;99.90;;;;;;5031381;28;20025;-55
2021/07/01 04:02:20;;;;;;;17.30;11.48;;;14.30;99.90;;;;;;5031155;28;20389;-55
2021/07/01 04:04:46;;;;;;;20.40;12.27;;;14.30;99.90;;;;;;5031067;28;20025;-55
2021/07/01 04:07:11;;;;;;;16.67;11.32;;;14.30;99.90;;;;;;5031037;28;20478;-54
2021/07/01 04:09:37;;;;;;;20.98;12.05;;;14.30;99.90;;;;;;5031096;28;20036;-54
2021/07/01 04:12:03;;;;;;;19.45;11.50;;;14.30;99.90;;;;;;5030878;28;20104;-54
2021/07/01 04:14:29;;;;;;;18.42;11.55;;;14.20;99.90;;;;;;5031098;28;20021;-55
2021/07/01 04:16:55;;;;;;;17.08;11.13;;;14.20;99.90;;;;;;5030904;28;20025;-54
2021/07/01 04:19:21;;;;;;;21.60;11.45;;;14.20;99.90;;;;;;5031152;28;20466;-54
2021/07/01 04:21:46;;;;;;;20.35;11.00;;;14.20;99.90;;;;;;5029787;28;20084;-54
2021/07/01 04:24:12;;;;;;;20.10;10.70;;;14.20;99.90;;;;;;5029799;28;20394;-54
2021/07/01 04:26:38;;;;;;;20.60;10.82;;;14.20;99.90;;;;;;5030901;28;20486;-54
2021/07/01 04:29:04;;;;;;;17.90;10.57;;;14.20;99.90;;;;;;5031090;28;20034;-54
2021/07/01 04:31:30;;;;;;;17.20;11.30;;;14.20;99.90;;;;;;5030724;28;20053;-55
2021/07/01 04:33:55;;;;;;;17.90;10.02;;;14.30;99.90;;;;;;5031097;28;20025;-55
2021/07/01 04:36:21;;;;;;;17.60;10.07;;;14.30;99.90;;;;;;5030965;28;20387;-54
2021/07/01 04:38:46;;;;;;;16.58;9.90;;;14.30;99.90;;;;;;5030586;28;20378;-54
2021/07/01 04:41:14;;;;;;;19.55;9.85;;;14.30;99.90;;;;;;5030811;28;20036;-55
2021/07/01 04:43:39;;;;;;;18.50;8.82;;;14.40;99.90;;;;;;5029645;28;20041;-55
2021/07/01 04:46:05;;;;;;;17.60;9.18;;;14.50;99.90;;;;;;5030822;28;20034;-55
2021/07/01 04:48:31;;;;;;;14.48;8.98;;;14.50;99.90;;;;;;5030627;28;20029;-55
2021/07/01 04:50:57;;;;;;;16.92;9.75;;;14.60;99.90;;;;;;5030744;28;20467;-55
2021/07/01 04:53:22;;;;;;;16.95;9.40;;;14.60;99.90;;;;;;5030614;28;20021;-54
2021/07/01 04:55:48;;;;;;;14.77;9.18;;;14.50;99.90;;;;;;5030884;28;20025;-54
2021/07/01 04:58:14;;;;;;;18.15;9.18;;;14.40;99.90;;;;;;5030613;28;20482;-54
2021/07/01 05:00:39;;;;;;;15.40;8.70;;;14.40;99.90;;;;;;5031106;28;20109;-54
2021/07/01 05:03:05;;;;;;;14.10;8.32;;;14.50;99.90;;;;;;5030531;28;20033;-55
2021/07/01 05:05:31;;;;;;;14.15;8.93;;;14.60;99.90;;;;;;5030552;28;20028;-55
2021/07/01 05:07:56;;;;;;;19.90;8.52;;;14.60;99.90;;;;;;5033773;28;20033;-54
2021/07/01 05:10:22;;;;;;;17.05;8.95;;;14.70;99.90;;;;;;5034573;28;20022;-54
2021/07/01 05:12:48;;;;;;;18.13;8.77;;;14.70;99.90;;;;;;5033868;28;20428;-55
2021/07/01 05:15:13;;;;;;;17.08;8.63;;;14.80;99.90;;;;;;5034020;28;20080;-55
2021/07/01 05:17:39;;;;;;;18.98;8.32;;;14.90;99.90;;;;;;5033820;28;20025;-55
2021/07/01 05:20:06;;;;;;;15.68;8.80;;;14.90;99.90;;;;;;5033916;28;20390;-55
2021/07/01 05:22:32;;;;;;;14.10;8.60;;;14.80;99.90;;;;;;5033983;28;20025;-55
2021/07/01 05:24:57;;;;;;;15.05;7.93;;;14.80;99.90;;;;;;5033987;28;20426;-56
2021/07/01 05:27:23;;;;;;;20.30;8.70;;;14.80;99.90;;;;;;5033638;28;20075;-55
2021/07/01 05:29:50;;;;;;;16.13;8.02;;;14.80;99.90;;;;;;5032146;28;20117;-55
2021/07/01 05:32:18;;;;;;;18.20;8.57;;;14.90;99.90;;;;;;5032108;28;20026;-55
2021/07/01 05:34:43;;;;;;;17.23;8.18;;;14.90;99.90;;;;;;5033798;28;20033;-55
2021/07/01 05:37:09;;;;;;;13.88;7.75;;;14.90;99.90;;;;;;5033509;28;20379;-55
2021/07/01 05:39:35;;;;;;;16.75;8.80;;;14.80;99.90;;;;;;5033484;28;20017;-55
2021/07/01 05:42:01;;;;;;;17.60;9.13;;;14.80;99.90;;;;;;5032048;28;20374;-55
2021/07/01 05:44:27;;;;;;;11.32;8.55;;;14.90;99.90;;;;;;5032233;28;20033;-55
2021/07/01 05:46:52;;;;;;;21.13;9.65;;;14.90;99.90;;;;;;5033569;28;20056;-55
2021/07/01 05:49:18;;;;;;;13.73;8.38;;;14.90;99.90;;;;;;5033281;28;20095;-55
2021/07/01 05:51:45;;;;;;;13.38;8.82;;;14.90;99.90;;;;;;5032992;28;20108;-54
2021/07/01 05:54:25;;;;;;;17.80;8.98;;;14.90;99.90;;;;;;5031961;28;20070;-55
2021/07/01 05:56:51;;;;;;;15.68;9.15;;;14.80;99.90;;;;;;5032034;28;20486;-54
2021/07/01 05:59:17;;;;;;;14.50;8.85;;;14.70;99.90;;;;;;5033054;28;20029;-54
2021/07/01 06:01:43;;;;;;;14.13;7.97;;;14.70;99.90;;;;;;5031685;28;20522;-54
2021/07/01 06:04:09;;;;;;;14.00;7.90;;;14.70;99.90;;;;;;5033215;28;20025;-54
2021/07/01 06:06:36;;;;;;;11.90;7.68;;;14.80;99.90;;;;;;5032692;28;20033;-54
2021/07/01 06:09:04;;;;;;;14.43;7.57;;;14.80;99.90;;;;;;5032826;28;20033;-54
2021/07/01 06:11:32;;;;;;;17.88;8.13;;;14.90;99.90;;;;;;5032924;28;20029;-54
2021/07/01 06:13:58;;;;;;;12.57;6.65;;;15.00;99.90;;;;;;5032883;28;20022;-54
2021/07/01 06:16:26;;;;;;;14.38;6.63;;;14.90;99.90;;;;;;5031623;28;20058;-54
2021/07/01 06:18:54;;;;;;;12.57;6.68;;;14.90;99.90;;;;;;5032357;28;20099;-54
2021/07/01 06:21:21;;;;;;;18.45;7.40;;;15.00;99.90;;;;;;5032605;28;20032;-54
2021/07/01 06:23:48;;;;;;;13.82;6.88;;;15.00;99.90;;;;;;5032946;28;20144;-54
2021/07/01 06:26:15;;;;;;;15.15;6.65;;;15.10;99.90;;;;;;5032497;28;20505;-54
2021/07/01 06:28:43;;;;;;;13.38;5.78;;;15.20;99.90;;;;;;5032445;28;20029;-54
2021/07/01 06:31:10;;;;;;;12.82;6.00;;;15.30;99.90;;;;;;5032301;28;20057;-54
2021/07/01 06:33:40;;;;;;;13.75;6.57;;;15.30;99.90;;;;;;5032503;28;20103;-55
2021/07/01 06:36:07;;;;;;;8.85;5.43;;;15.10;99.90;;;;;;5032401;28;20072;-54
2021/07/01 06:38:35;;;;;;;12.98;5.82;;;15.10;99.90;;;;;;5032680;28;20021;-54
2021/07/01 06:41:02;;;;;;;9.40;5.55;;;15.00;99.90;;;;;;5032276;28;20434;-55
2021/07/01 06:43:29;;;;;;;13.15;5.68;;;15.10;99.90;;;;;;5031121;28;20112;-54
2021/07/01 06:45:59;;;;;;;11.18;5.40;;;15.10;99.90;;;;;;5032115;28;20132;-55
2021/07/01 06:48:25;;;;;;;11.68;4.63;;;15.20;99.90;;;;;;5032390;28;20105;-55
2021/07/01 06:50:53;;;;;;;14.15;5.45;;;15.20;99.90;;;;;;5032104;28;20029;-54
2021/07/01 06:53:20;;;;;;;10.68;4.80;;;15.30;99.90;;;;;;5032467;28;20060;-54
2021/07/01 06:55:48;;;;;;;9.80;4.45;;;15.40;99.90;;;;;;5031830;28;20052;-54
2021/07/01 06:58:14;;;;;;;10.93;4.18;;;15.20;99.90;;;;;;5031900;28;20025;-55
2021/07/01 07:00:40;;;;;;;9.15;4.80;;;15.20;99.90;;;;;;5032125;28;20390;-55
2021/07/01 07:03:06;;;;;;;7.05;4.10;;;15.30;99.90;;;;;;5031820;28;20032;-55
2021/07/01 07:05:32;;;;;;;9.52;4.32;;;15.50;99.90;;;;;;5031908;28;20529;-55
2021/07/01 07:07:58;;;;;;;9.43;4.40;;;15.50;99.90;;;;;;5031685;28;20025;-55
2021/07/01 07:10:24;;;;;;;10.35;5.10;;;15.40;99.90;;;;;;5031840;28;20029;-55
2021/07/01 07:12:54;;;;;;;10.55;4.70;;;15.40;99.90;;;;;;5031741;28;20034;-55
2021/07/01 07:15:29;;;;;;;10.20;4.35;;;15.40;99.90;;;;;;5030289;28;20025;-55
2021/07/01 07:18:09;;;;;;;8.45;4.68;;;15.40;99.90;;;;;;5031659;28;20386;-55
2021/07/01 07:20:40;;;;;;;14.48;4.80;;;15.50;99.90;;;;;;5030893;28;20022;-55
2021/07/01 07:23:08;;;;;;;11.68;4.78;;;15.50;99.90;;;;;;5031324;28;20029;-55
2021/07/01 07:25:39;;;;;;;11.05;4.70;;;15.50;99.90;;;;;;5031625;28;20394;-55
2021/07/01 07:28:10;;;;;;;8.90;4.38;;;15.60;99.90;;;;;;5031262;28;20352;-55
2021/07/01 07:30:36;;;;;;;9.82;4.80;;;15.60;99.90;;;;;;5030592;28;20045;-55
2021/07/01 07:33:07;;;;;;;11.25;4.60;;;15.70;99.90;;;;;;5031322;28;20433;-55
2021/07/01 07:35:34;;;;;;;13.57;4.63;;;15.80;99.90;;;;;;5031408;28;20124;-55
2021/07/01 07:38:00;;;;;;;9.30;4.68;;;15.70;99.90;;;;;;5031353;28;20441;-54
2021/07/01 07:40:27;;;;;;;8.98;4.50;;;15.70;99.90;;;;;;5028488;28;20064;-55
2021/07/01 07:42:53;;;;;;;12.93;4.63;;;15.70;99.90;;;;;;5030046;28;20072;-54
2021/07/01 07:45:18;;;;;;;10.18;4.50;;;15.60;99.90;;;;;;5027472;28;20040;-54
2021/07/01 07:47:44;;;;;;;11.70;4.68;;;15.60;99.90;;;;;;5028638;28;20037;-54
2021/07/01 07:50:12;;;;;;;10.02;4.32;;;15.50;99.90;;;;;;5028570;28;20393;-53
2021/07/01 07:52:47;;;;;;;8.75;4.32;;;15.60;99.90;;;;;;5026536;28;20060;-54
2021/07/01 07:55:16;;;;;;;14.02;4.68;;;15.60;99.90;;;;;;5026756;28;20121;-54
2021/07/01 07:57:46;;;;;;;14.25;5.38;;;15.70;99.90;;;;;;5028279;28;20017;-55
2021/07/01 08:00:12;;;;;;;9.98;4.68;;;15.80;99.90;;;;;;5029417;28;20080;-54
2021/07/01 08:03:05;;;;;;;10.60;4.72;;;15.80;99.90;;;;;;5029729;28;20048;-54
2021/07/01 08:05:31;;;;;;;11.00;4.93;;;15.90;99.90;;;;;;5028010;28;20017;-54
2021/07/01 08:07:58;;;;;;;9.60;4.80;;;16.00;99.90;;;;;;5028989;28;20037;-54
2021/07/01 08:10:29;;;;;;;10.68;5.05;;;15.80;99.90;;;;;;5030003;28;20036;-54
2021/07/01 08:13:02;;;;;;;12.30;4.80;;;15.90;99.90;;;;;;5029419;28;20025;-54
2021/07/01 08:15:29;;;;;;;10.95;4.97;;;15.90;99.90;;;;;;5027413;28;20431;-54
2021/07/01 08:17:55;;;;;;;13.50;4.40;;;16.00;99.90;;;;;;5030354;28;20517;-54
2021/07/01 08:20:24;;;;;;;11.75;4.45;;;16.10;99.90;;;;;;5028880;28;20021;-54
2021/07/01 08:22:53;;;;;;;9.77;4.95;;;16.10;99.90;;;;;;5028999;28;20148;-54
2021/07/01 08:25:20;;;;;;;12.57;5.53;;;16.20;99.90;;;;;;5030726;28;20029;-54
2021/07/01 08:27:49;;;;;;;9.80;5.05;;;16.40;99.90;;;;;;5026899;28;20111;-54
2021/07/01 08:30:17;;;;;;;25.42;5.35;;;16.30;99.90;;;;;;5028564;28;20045;-54
2021/07/01 08:32:46;;;;;;;8.30;5.13;;;16.30;99.90;;;;;;5028973;28;20021;-54
2021/07/01 08:35:14;;;;;;;11.85;5.00;;;16.30;99.90;;;;;;5023553;28;20032;-54
2021/07/01 08:37:45;;;;;;;10.63;5.35;;;16.40;99.90;;;;;;5026088;28;20018;-54
2021/07/01 08:40:14;;;;;;;11.50;5.75;;;16.10;99.90;;;;;;5021373;28;20044;-55
2021/07/01 08:42:40;;;;;;;13.45;5.57;;;16.00;99.90;;;;;;5032342;28;20034;-55
2021/07/01 08:45:09;;;;;;;11.40;5.07;;;16.10;99.90;;;;;;5031710;28;20036;-54
2021/07/01 08:47:43;;;;;;;11.77;5.50;;;16.40;99.90;;;;;;5031891;28;20108;-54
2021/07/01 08:50:16;;;;;;;13.02;5.18;;;16.50;99.90;;;;;;5032289;28;20025;-54
2021/07/01 08:53:01;;;;;;;12.30;5.03;;;16.50;99.90;;;;;;5033807;28;20033;-54
2021/07/01 08:55:28;;;;;;;18.60;5.38;;;16.50;99.90;;;;;;5033395;28;20025;-54
2021/07/01 08:57:56;;;;;;;13.73;5.25;;;16.40;99.90;;;;;;5033758;28;20025;-54
2021/07/01 09:00:23;;;;;;;12.70;5.30;;;16.30;99.90;;;;;;5033567;28;20467;-54
2021/07/01 09:03:08;;;;;;;11.38;5.40;;;16.30;99.90;;;;;;5033854;28;20156;-54
2021/07/01 09:05:36;;;;;;;11.75;5.50;;;16.20;99.90;;;;;;5033501;28;20427;-54
2021/07/01 09:08:09;;;;;;;17.33;5.53;;;16.20;99.90;;;;;;5033171;28;20104;-54
2021/07/01 09:10:35;;;;;;;12.38;5.43;;;16.10;99.90;;;;;;5034175;28;20112;-54
2021/07/01 09:13:09;;;;;;;13.45;5.35;;;16.00;99.90;;;;;;5032695;28;20148;-54
2021/07/01 09:15:36;;;;;;;16.23;5.93;;;15.90;99.90;;;;;;5029137;28;20459;-54
2021/07/01 09:18:03;;;;;;;14.52;5.85;;;16.00;99.90;;;;;;5026173;28;20052;-55
2021/07/01 09:20:34;;;;;;;14.85;5.78;;;16.10;99.90;;;;;;5030644;28;20091;-54
2021/07/01 09:23:02;;;;;;;14.45;5.85;;;16.20;99.90;;;;;;5031163;28;20045;-55
2021/07/01 09:25:28;;;;;;;17.42;6.10;;;16.20;99.90;;;;;;5031028;28;20018;-54
2021/07/01 09:27:56;;;;;;;16.25;5.95;;;16.30;99.90;;;;;;5032432;28;20026;-54
2021/07/01 09:30:25;;;;;;;14.07;6.15;;;16.40;99.90;;;;;;5030123;28;20049;-54
2021/07/01 09:32:57;;;;;;;15.30;6.60;;;16.40;99.90;;;;;;5031332;28;20090;-54
2021/07/01 09:35:29;;;;;;;14.57;5.75;;;16.40;99.90;;;;;;5031517;28;20056;-54
2021/07/01 09:37:58;;;;;;;15.18;6.72;;;16.50;99.90;;;;;;5031079;28;20064;-54
2021/07/01 09:40:24;;;;;;;15.73;6.38;;;16.60;99.90;;;;;;5032523;28;20123;-54
2021/07/01 09:42:57;;;;;;;14.52;5.88;;;16.80;99.90;;;;;;5033351;28;20041;-54
2021/07/01 09:45:24;;;;;;;14.80;5.53;;;17.20;99.90;;;;;;5032091;28;20538;-54
2021/07/01 09:47:56;;;;;;;11.38;5.22;;;17.20;99.90;;;;;;5030009;28;20032;-54
2021/07/01 09:50:26;;;;;;;12.95;5.85;;;17.10;99.90;;;;;;5032142;28;20052;-54
2021/07/01 09:52:55;;;;;;;14.27;5.82;;;16.90;99.90;;;;;;5030688;28;20029;-54
2021/07/01 09:55:26;;;;;;;13.40;5.35;;;16.90;99.90;;;;;;5032573;28;20029;-54
2021/07/01 09:57:54;;;;;;;12.55;5.72;;;16.70;99.90;;;;;;5032411;28;20041;-54
2021/07/01 10:00:20;;;;;;;13.18;5.32;;;16.60;99.90;;;;;;5028976;28;20036;-54
2021/07/01 10:03:00;;;;;;;12.45;5.78;;;16.80;99.90;;;;;;5028569;28;20022;-55
2021/07/01 10:05:28;;;;;;;13.48;6.00;;;17.10;99.90;;;;;;5028573;28;20021;-55
2021/07/01 10:07:54;;;;;;;12.98;5.38;;;17.10;99.90;;;;;;5039130;28;20118;-54
2021/07/01 10:10:21;;;;;;;13.70;5.78;;;17.20;99.90;;;;;;5031984;28;20045;-54
2021/07/01 10:12:53;;;;;;;12.40;4.95;;;17.30;99.90;;;;;;5025957;28;20383;-54
2021/07/01 10:15:28;;;;;;;10.77;5.40;;;17.30;99.90;;;;;;5028130;28;20083;-54
2021/07/01 10:18:10;;;;;;;10.10;5.15;;;17.30;99.90;;;;;;5028695;28;20021;-54
2021/07/01 10:20:41;;;;;;;14.00;5.20;;;17.30;99.90;;;;;;5029486;28;20029;-55
2021/07/01 10:23:27;;;;;;;11.18;5.13;;;17.40;99.90;;;;;;5029503;28;20180;-54
2021/07/01 10:25:55;;;;;;;11.32;5.40;;;17.30;99.90;;;;;;5027489;28;20167;-54
2021/07/01 10:28:23;;;;;;;15.45;5.55;;;17.40;99.90;;;;;;5028844;28;20159;-55
2021/07/01 10:30:56;;;;;;;12.13;5.00;;;17.40;99.90;;;;;;5031387;28;20045;-55
2021/07/01 10:33:29;;;;;;;13.18;5.07;;;17.40;99.90;;;;;;5025195;28;20458;-55
2021/07/01 10:35:57;;;;;;;16.42;5.28;;;17.70;99.90;;;;;;5025205;28;20113;-54
2021/07/01 10:38:23;;;;;;;17.65;6.10;;;17.40;99.90;;;;;;5030004;28;20029;-54
2021/07/01 10:40:55;;;;;;;9.90;4.90;;;17.60;99.90;;;;;;5029394;28;20021;-54
2021/07/01 10:43:44;;;;;;;13.77;5.30;;;17.80;99.90;;;;;;5028491;28;20075;-54
2021/07/01 10:46:11;;;;;;;15.65;5.78;;;17.90;99.90;;;;;;5029306;28;20083;-54
2021/07/01 10:48:36;;;;;;;14.32;5.72;;;18.30;99.90;;;;;;5030147;28;20029;-54
2021/07/01 10:51:08;;;;;;;14.35;5.00;;;18.50;99.90;;;;;;5030873;28;20033;-54
2021/07/01 10:53:39;;;;;;;14.05;5.07;;;18.20;99.90;;;;;;5031078;28;20097;-55
2021/07/01 10:56:09;;;;;;;17.10;5.80;;;18.30;99.90;;;;;;5030872;28;20029;-54
2021/07/01 10:58:36;;;;;;;13.60;5.50;;;18.40;99.90;;;;;;5027737;28;20048;-54
2021/07/01 11:01:04;;;;;;;13.02;5.38;;;18.10;99.90;;;;;;5029268;28;20445;-55
2021/07/01 11:03:31;;;;;;;9.88;4.93;;;18.10;99.90;;;;;;5029604;28;20090;-54
2021/07/01 11:05:59;;;;;;;15.95;5.45;;;18.10;99.90;;;;;;5025933;28;20025;-54
2021/07/01 11:08:35;;;;;;;15.80;5.45;;;18.60;99.90;;;;;;5027288;28;20033;-54
2021/07/01 11:11:03;;;;;;;10.65;5.20;;;18.90;99.90;;;;;;5028463;28;20045;-54
2021/07/01 11:13:30;;;;;;;10.80;4.78;;;19.00;99.90;;;;;;5025375;28;20025;-54
2021/07/01 11:16:12;;;;;;;12.75;5.68;;;19.30;99.90;;;;;;5024692;28;20025;-54
2021/07/01 11:18:41;;;;;;;12.82;6.35;;;19.20;99.90;;;;;;5030364;28;20017;-54
2021/07/01 11:21:18;;;;;;;9.50;4.85;;;19.50;99.90;;;;;;5028182;28;20465;-54
2021/07/01 11:24:07;;;;;;;9.60;4.93;;;20.60;99.90;;;;;;5030298;28;20072;-54
2021/07/01 11:26:33;;;;;;;9.93;5.10;;;21.30;99.90;;;;;;5029555;28;20040;-52
2021/07/01 11:29:04;;;;;;;12.13;5.55;;;21.20;99.90;;;;;;5029459;28;20043;-52
2021/07/01 11:31:47;;;;;;;12.10;5.13;;;21.30;99.90;;;;;;5028566;28;20057;-52
2021/07/01 11:34:17;;;;;;;11.60;5.43;;;20.90;99.90;;;;;;5027963;28;20510;-54
2021/07/01 11:36:51;;;;;;;12.77;5.28;;;20.00;99.90;;;;;;5027940;28;20032;-55
2021/07/01 11:39:24;;;;;;;9.15;5.00;;;19.60;99.90;;;;;;5021564;28;20036;-55
2021/07/01 11:41:49;;;;;;;13.20;5.50;;;19.60;99.90;;;;;;5024531;28;20482;-55
2021/07/01 11:44:17;;;;;;;14.52;5.95;;;19.40;99.90;;;;;;5021107;28;20034;-54
2021/07/01 11:46:44;;;;;;;11.13;4.93;;;19.30;99.90;;;;;;5028670;28;20040;-54
2021/07/01 11:49:10;;;;;;;11.25;5.30;;;20.00;99.90;;;;;;5029945;28;20035;-54
2021/07/01 11:51:37;;;;;;;12.18;5.28;;;21.10;99.90;;;;;;5028829;28;20071;-54
2021/07/01 11:54:04;;;;;;;11.45;6.03;;;21.10;99.90;;;;;;5029205;28;20229;-54
2021/07/01 11:56:53;;;;;;;10.40;6.00;;;21.20;99.90;;;;;;5028094;28;20021;-54
2021/07/01 11:59:17;;;;;;;13.38;6.07;;;20.90;99.90;;;;;;5029140;28;20055;-54
2021/07/01 12:01:43;;;;;;;17.48;6.20;;;21.00;99.90;;;;;;5029747;28;20032;-54
2021/07/01 12:04:10;;;;;;;13.68;6.45;;;20.90;99.90;;;;;;5029581;28;20045;-55
2021/07/01 12:06:59;;;;;;;11.13;6.18;;;21.00;99.90;;;;;;5028161;28;20069;-54
2021/07/01 12:09:25;;;;;;;20.95;6.45;;;20.70;99.90;;;;;;5027358;28;20026;-54
2021/07/01 12:12:09;;;;;;;12.52;6.22;;;20.80;99.90;;;;;;5025160;28;20437;-55
2021/07/01 12:14:46;;;;;;;8.15;5.55;;;21.00;99.90;;;;;;5029520;28;20505;-54
2021/07/01 12:17:12;;;;;;;12.25;6.18;;;21.40;99.90;;;;;;5031737;28;20064;-55
2021/07/01 12:19:47;;;;;;;14.27;5.88;;;21.60;99.90;;;;;;5032396;28;20029;-54
2021/07/01 12:22:45;;;;;;;12.95;6.05;;;21.60;99.90;;;;;;5033004;28;20574;-54
2021/07/01 12:25:25;;;;;;;13.40;6.45;;;21.80;99.90;;;;;;5031923;28;20079;-54
2021/07/01 12:28:15;;;;;;;13.23;6.13;;;21.80;99.90;;;;;;5032147;28;20104;-54
2021/07/01 12:30:46;;;;;;;9.80;5.30;;;22.10;99.90;;;;;;5028839;28;20049;-54
2021/07/01 12:33:34;;;;;;;13.25;5.18;;;22.00;99.90;;;;;;5032441;28;20033;-54
2021/07/01 12:36:08;;;;;;;9.93;5.45;;;22.00;99.90;;;;;;5033203;28;20108;-55
2021/07/01 12:38:35;;;;;;;9.50;5.10;;;23.40;99.70;;;;;;5030393;28;20033;-55
2021/07/01 12:41:04;;;;;;;11.00;5.30;;;24.50;96.00;;;;;;5032784;28;20025;-55